createdAt,value
2023-03-21T00:01:25.582Z,5.34
2023-03-21T00:05:30.057Z,5.12
2023-03-21T00:09:32.774Z,4.93
2023-03-21T00:13:38.485Z,4.77
2023-03-21T00:17:41.558Z,4.88
2023-03-21T00:21:59.607Z,4.92
2023-03-21T00:26:10.165Z,4.40
2023-03-21T00:30:14.004Z,4.23
2023-03-21T00:34:22.490Z,4.41
2023-03-21T00:38:36.265Z,4.55
2023-03-21T00:42:39.104Z,5.00
2023-03-21T00:46:51.681Z,4.97
2023-03-21T00:51:00.554Z,4.97
2023-03-21T00:55:04.940Z,5.01
2023-03-21T00:59:07.614Z,4.98
2023-03-21T01:03:23.713Z,4.76
2023-03-21T01:07:27.692Z,4.91
2023-03-21T01:11:32.051Z,4.84
2023-03-21T01:15:34.941Z,4.91
2023-03-21T01:19:51.208Z,4.73
2023-03-21T01:23:54.630Z,4.93
2023-03-21T01:27:58.636Z,5.22
2023-03-21T01:32:01.445Z,5.19
2023-03-21T01:36:12.804Z,5.12
2023-03-21T01:40:18.182Z,4.92
2023-03-21T01:44:22.475Z,4.80
2023-03-21T01:48:25.521Z,4.71
2023-03-21T01:52:37.135Z,4.65
2023-03-21T01:56:42.063Z,4.89
2023-03-21T02:00:46.462Z,4.85
2023-03-21T02:04:51.143Z,5.04
2023-03-21T02:08:54.435Z,4.75
2023-03-21T02:12:58.494Z,4.79
2023-03-21T02:17:04.711Z,5.13
2023-03-21T02:21:48.904Z,4.92
2023-03-21T02:26:17.554Z,4.73
2023-03-21T02:30:51.619Z,5.01
2023-03-21T02:35:29.289Z,5.05
2023-03-21T02:39:41.575Z,5.14
2023-03-21T02:43:46.511Z,5.24
2023-03-21T02:47:52.643Z,5.25
2023-03-21T02:52:00.229Z,5.15
2023-03-21T02:56:10.787Z,5.22
2023-03-21T03:00:17.838Z,5.01
2023-03-21T03:04:22.068Z,5.15
2023-03-21T03:08:38.482Z,4.84
2023-03-21T03:12:51.591Z,4.67
2023-03-21T03:17:03.952Z,4.63
2023-03-21T03:21:12.193Z,4.71
2023-03-21T03:25:24.958Z,4.46
2023-03-21T03:29:35.723Z,4.39
2023-03-21T03:33:41.327Z,4.32
2023-03-21T03:37:47.528Z,4.03
2023-03-21T03:42:12.198Z,3.98
2023-03-21T03:46:20.861Z,4.27
2023-03-21T03:50:28.005Z,4.34
2023-03-21T03:54:33.341Z,4.44
2023-03-21T03:58:45.190Z,4.48
2023-03-21T04:02:49.967Z,4.56
2023-03-21T04:06:53.714Z,4.61
2023-03-21T04:10:56.596Z,4.10
2023-03-21T04:15:08.177Z,4.10
2023-03-21T04:19:15.888Z,3.97
2023-03-21T04:23:20.201Z,3.99
2023-03-21T04:27:22.893Z,4.29
2023-03-21T04:31:27.273Z,3.95
2023-03-21T04:35:31.577Z,3.99
2023-03-21T04:39:34.106Z,4.30
2023-03-21T04:43:37.340Z,4.45
2023-03-21T04:47:40.778Z,4.45
2023-03-21T04:51:45.578Z,4.21
2023-03-21T04:55:51.876Z,4.00
2023-03-21T04:59:56.136Z,4.31
2023-03-21T05:03:59.418Z,4.55
2023-03-21T05:08:03.514Z,4.50
2023-03-21T05:12:06.852Z,4.41
2023-03-21T05:16:10.389Z,4.45
2023-03-21T05:20:17.356Z,4.61
2023-03-21T05:24:23.073Z,4.49
2023-03-21T05:28:31.840Z,4.50
2023-03-21T05:32:34.566Z,4.36
2023-03-21T05:36:37.283Z,4.68
2023-03-21T05:40:41.312Z,4.52
2023-03-21T05:44:44.244Z,4.44
2023-03-21T05:48:46.920Z,4.28
2023-03-21T05:52:49.713Z,4.58
2023-03-21T05:56:53.758Z,4.56
2023-03-21T06:00:56.434Z,4.46
2023-03-21T06:04:59.161Z,4.61
2023-03-21T06:09:02.189Z,4.85
2023-03-21T06:13:06.497Z,4.80
2023-03-21T06:17:09.185Z,4.99
2023-03-21T06:21:11.849Z,5.12
2023-03-21T06:25:14.600Z,4.90
2023-03-21T06:29:18.915Z,5.22
2023-03-21T06:33:21.738Z,5.30
2023-03-21T06:37:25.816Z,5.45
2023-03-21T06:41:28.281Z,5.48
2023-03-21T06:45:32.301Z,5.68
2023-03-21T06:49:34.918Z,5.84
2023-03-21T06:53:37.549Z,5.82
2023-03-21T06:57:40.259Z,5.99
2023-03-21T07:01:44.293Z,6.13
2023-03-21T07:05:46.758Z,6.12
2023-03-21T07:09:49.636Z,6.25
2023-03-21T07:13:53.617Z,6.25
2023-03-21T07:17:57.546Z,6.45
2023-03-21T07:22:01.459Z,6.50
2023-03-21T07:26:04.189Z,6.64
2023-03-21T07:30:08.282Z,6.42
2023-03-21T07:34:12.330Z,6.51
2023-03-21T07:38:16.874Z,6.68
2023-03-21T07:42:20.356Z,6.72
2023-03-21T07:46:23.085Z,6.85
2023-03-21T07:50:27.210Z,6.93
2023-03-21T07:54:30.347Z,7.06
2023-03-21T07:58:34.287Z,7.24
2023-03-21T08:02:37.124Z,7.25
2023-03-21T08:06:41.263Z,7.02
2023-03-21T08:10:44.584Z,7.16
2023-03-21T08:14:47.298Z,7.31
2023-03-21T08:18:50.363Z,7.20
2023-03-21T08:22:54.393Z,7.38
2023-03-21T08:26:58.373Z,7.40
2023-03-21T08:31:01.449Z,7.62
2023-03-21T08:35:04.835Z,7.85
2023-03-21T08:39:08.831Z,7.88
2023-03-21T08:43:13.686Z,8.15
2023-03-21T08:47:17.411Z,8.35
2023-03-21T08:51:20.628Z,8.34
2023-03-21T08:55:24.704Z,8.39
2023-03-21T08:59:27.650Z,8.28
2023-03-21T09:03:30.374Z,8.63
2023-03-21T09:07:34.717Z,8.81
2023-03-21T09:11:38.738Z,8.70
2023-03-21T09:15:41.520Z,8.59
2023-03-21T09:19:44.536Z,8.56
2023-03-21T09:23:48.642Z,8.76
2023-03-21T09:27:53.735Z,8.87
2023-03-21T09:31:57.777Z,8.92
2023-03-21T09:36:01.262Z,8.89
2023-03-21T09:40:08.749Z,8.81
2023-03-21T09:44:22.859Z,8.93
2023-03-21T09:48:37.615Z,9.13
2023-03-21T09:52:45.635Z,9.43
2023-03-21T09:56:48.504Z,9.34
2023-03-21T10:00:56.696Z,9.18
2023-03-21T10:05:00.278Z,9.36
2023-03-21T10:09:06.633Z,9.32
2023-03-21T10:13:15.654Z,9.49
2023-03-21T10:17:26.321Z,9.62
2023-03-21T10:22:00.279Z,9.50
2023-03-21T10:25:55.119Z,9.29
2023-03-21T10:30:01.063Z,9.16
2023-03-21T10:34:16.539Z,9.17
2023-03-21T10:38:21.138Z,9.10
2023-03-21T10:42:25.686Z,9.09
2023-03-21T10:46:28.961Z,9.18
2023-03-21T10:50:33.267Z,9.08
2023-03-21T10:54:36.732Z,9.63
2023-03-21T10:58:43.284Z,9.11
2023-03-21T11:02:49.234Z,9.64
2023-03-21T11:06:55.185Z,9.36
2023-03-21T11:11:02.010Z,9.55
2023-03-21T11:15:27.206Z,9.37
2023-03-21T11:19:32.906Z,9.26
2023-03-21T11:23:40.957Z,9.58
2023-03-21T11:27:49.356Z,9.95
2023-03-21T11:31:52.247Z,9.98
2023-03-21T11:36:03.182Z,10.15
2023-03-21T11:40:21.136Z,10.10
2023-03-21T11:44:32.532Z,9.70
2023-03-21T11:48:40.833Z,9.62
2023-03-21T11:52:51.270Z,10.20
2023-03-21T11:56:58.107Z,10.07
2023-03-21T12:01:09.244Z,10.21
2023-03-21T12:05:20.096Z,10.48
2023-03-21T12:09:30.557Z,10.52
2023-03-21T12:13:44.989Z,10.75
2023-03-21T12:17:54.400Z,10.62
2023-03-21T12:22:05.660Z,10.77
2023-03-21T12:26:15.517Z,11.13
2023-03-21T12:30:30.169Z,11.16
2023-03-21T12:34:52.798Z,11.05
2023-03-21T12:39:03.277Z,11.25
2023-03-21T12:43:26.200Z,11.54
2023-03-21T12:47:32.672Z,11.13
2023-03-21T12:51:39.098Z,11.16
2023-03-21T12:55:42.253Z,11.06
2023-03-21T12:59:49.504Z,11.11
2023-03-21T13:04:06.881Z,11.45
2023-03-21T13:08:16.572Z,11.38
2023-03-21T13:12:29.781Z,12.00
2023-03-21T13:16:34.333Z,11.94
2023-03-21T13:20:44.712Z,12.13
2023-03-21T13:24:49.719Z,12.19
2023-03-21T13:28:53.306Z,12.20
2023-03-21T13:33:05.644Z,12.11
2023-03-21T13:37:16.549Z,12.01
2023-03-21T13:41:20.675Z,11.85
2023-03-21T13:45:29.878Z,12.01
2023-03-21T13:49:35.705Z,11.90
2023-03-21T13:53:40.377Z,12.15
2023-03-21T13:57:43.165Z,12.36
2023-03-21T14:02:00.101Z,12.41
2023-03-21T14:06:02.993Z,12.49
2023-03-21T14:10:15.006Z,12.44
2023-03-21T14:14:18.264Z,12.50
2023-03-21T14:18:41.206Z,12.42
2023-03-21T14:22:48.064Z,12.13
2023-03-21T14:26:54.040Z,12.45
2023-03-21T14:30:57.918Z,12.43
2023-03-21T14:35:02.325Z,12.41
2023-03-21T14:39:07.771Z,12.50
2023-03-21T14:43:13.429Z,12.66
2023-03-21T14:47:19.873Z,12.50
2023-03-21T14:51:30.803Z,12.59
2023-03-21T14:55:33.558Z,12.61
2023-03-21T14:59:38.856Z,12.56
2023-03-21T15:03:41.672Z,12.54
2023-03-21T15:07:44.348Z,12.57
2023-03-21T15:11:51.545Z,12.62
2023-03-21T15:15:56.034Z,12.56
2023-03-21T15:19:58.806Z,12.62
2023-03-21T15:24:04.904Z,12.77
2023-03-21T15:28:07.889Z,12.74
2023-03-21T15:32:17.498Z,12.61
2023-03-21T15:36:20.168Z,12.64
2023-03-21T15:40:26.571Z,12.54
2023-03-21T15:44:29.831Z,12.54
2023-03-21T15:48:35.429Z,12.28
2023-03-21T15:52:38.673Z,12.32
2023-03-21T15:56:45.996Z,12.27
2023-03-21T16:00:54.399Z,12.36
2023-03-21T16:05:01.147Z,12.38
2023-03-21T16:09:10.362Z,12.35
2023-03-21T16:13:14.314Z,12.24
2023-03-21T16:17:29.688Z,12.34
2023-03-21T16:21:34.701Z,12.42
2023-03-21T16:25:37.440Z,12.40
2023-03-21T16:29:41.165Z,12.39
2023-03-21T16:33:44.312Z,12.26
2023-03-21T16:37:48.908Z,12.18
2023-03-21T16:41:51.629Z,12.11
2023-03-21T16:45:54.433Z,12.03
2023-03-21T16:49:57.305Z,11.86
2023-03-21T16:54:01.737Z,11.76
2023-03-21T16:58:05.081Z,11.79
2023-03-21T17:02:13.534Z,11.26
2023-03-21T17:06:18.351Z,11.46
2023-03-21T17:10:24.942Z,11.36
2023-03-21T17:14:27.656Z,11.36
2023-03-21T17:18:30.380Z,11.26
2023-03-21T17:22:33.504Z,11.27
2023-03-21T17:26:37.680Z,11.21
2023-03-21T17:30:40.955Z,11.22
2023-03-21T17:34:43.772Z,11.10
2023-03-21T17:38:46.843Z,10.98
2023-03-21T17:42:51.559Z,10.93
2023-03-21T17:46:54.246Z,10.69
2023-03-21T17:50:57.098Z,10.55
2023-03-21T17:55:00.116Z,10.20
2023-03-21T17:59:07.496Z,9.57
2023-03-21T18:03:10.192Z,9.26
2023-03-21T18:07:19.586Z,9.25
2023-03-21T18:11:27.287Z,9.14
2023-03-21T18:15:31.343Z,8.71
2023-03-21T18:19:34.560Z,8.57
2023-03-21T18:23:37.774Z,8.09
2023-03-21T18:28:02.084Z,7.83
2023-03-21T18:32:07.322Z,7.99
2023-03-21T18:36:14.030Z,7.56
2023-03-21T18:40:22.022Z,7.55
2023-03-21T18:44:25.691Z,7.53
2023-03-21T18:48:33.026Z,7.45
2023-03-21T18:52:37.004Z,7.34
2023-03-21T19:01:05.064Z,7.10
2023-03-21T19:05:10.130Z,6.52
2023-03-21T19:09:14.384Z,6.27
2023-03-21T19:13:17.315Z,6.74
2023-03-21T19:18:20.677Z,6.74
2023-03-21T19:21:44.432Z,6.31
2023-03-21T19:25:47.892Z,6.32
2023-03-21T19:30:06.824Z,6.64
2023-03-21T19:34:13.799Z,5.87
2023-03-21T19:38:17.897Z,6.64
2023-03-21T19:42:20.964Z,6.98
2023-03-21T19:46:25.322Z,6.78
2023-03-21T19:51:20.531Z,6.66
2023-03-21T19:54:54.008Z,7.04
2023-03-21T19:58:57.030Z,7.07
2023-03-21T20:02:59.820Z,6.74
2023-03-21T20:07:02.521Z,6.75
2023-03-21T20:11:06.927Z,6.76
2023-03-21T20:15:17.588Z,6.67
2023-03-21T20:19:22.921Z,6.71
2023-03-21T20:23:25.664Z,6.71
2023-03-21T20:27:30.439Z,6.84
2023-03-21T20:31:33.573Z,6.72
2023-03-21T20:36:24.077Z,6.80
2023-03-21T20:39:59.014Z,6.82
2023-03-21T20:48:26.793Z,6.63
2023-03-21T20:56:53.195Z,6.45
2023-03-21T21:00:59.297Z,6.54
2023-03-21T21:05:24.599Z,6.60
2023-03-21T21:09:25.189Z,6.39
2023-03-21T21:13:27.926Z,6.31
2023-03-21T21:18:01.929Z,6.32
2023-03-21T21:21:56.512Z,6.77
2023-03-21T21:26:01.076Z,6.69
2023-03-21T21:30:04.087Z,6.64
2023-03-21T21:34:08.198Z,6.71
2023-03-21T21:38:11.611Z,6.71
2023-03-21T21:42:14.288Z,6.57
2023-03-21T21:46:17.492Z,6.66
2023-03-21T21:50:22.643Z,6.82
2023-03-21T21:54:26.182Z,6.98
2023-03-21T21:58:29.293Z,7.05
2023-03-21T22:02:32.049Z,6.71
2023-03-21T22:06:36.294Z,7.01
2023-03-21T22:10:39.256Z,6.80
2023-03-21T22:14:42.212Z,6.86
2023-03-21T22:18:44.945Z,6.72
2023-03-21T22:22:49.292Z,6.96
2023-03-21T22:26:57.761Z,6.57
2023-03-21T22:31:00.527Z,6.53
2023-03-21T22:35:03.373Z,6.26
2023-03-21T22:39:07.420Z,6.09
2023-03-21T22:43:10.192Z,6.48
2023-03-21T22:47:13.275Z,6.42
2023-03-21T22:51:15.954Z,6.55
2023-03-21T22:55:20.100Z,6.21
2023-03-21T22:59:22.819Z,6.33
2023-03-21T23:03:25.880Z,6.40
2023-03-21T23:07:28.537Z,6.49
2023-03-21T23:11:32.631Z,6.25
2023-03-21T23:15:35.637Z,6.17
2023-03-21T23:19:41.071Z,6.08
2023-03-21T23:23:50.086Z,5.98
2023-03-21T23:27:54.215Z,5.92
2023-03-21T23:31:56.953Z,5.63
2023-03-21T23:35:59.710Z,5.61
2023-03-21T23:40:02.558Z,5.18
2023-03-21T23:44:06.973Z,5.37
2023-03-21T23:48:09.749Z,5.18
2023-03-21T23:52:12.955Z,5.22
2023-03-21T23:56:17.422Z,5.09
